sensor_id;sensor_type;location;lat;lon;timestamp;P1;durP1;ratioP1;P2;durP2;ratioP2
297;SDS011;133;49.626;9.680;2022-08-06T00:02:17;7.60;;;3.30;;
297;SDS011;133;49.626;9.680;2022-08-06T00:04:48;3.47;;;2.80;;
297;SDS011;133;49.626;9.680;2022-08-06T00:07:15;3.73;;;2.73;;
297;SDS011;133;49.626;9.680;2022-08-06T00:09:41;5.13;;;3.13;;
297;SDS011;133;49.626;9.680;2022-08-06T00:12:07;3.30;;;3.10;;
297;SDS011;133;49.626;9.680;2022-08-06T00:14:33;4.43;;;2.70;;
297;SDS011;133;49.626;9.680;2022-08-06T00:16:59;3.13;;;2.90;;
297;SDS011;133;49.626;9.680;2022-08-06T00:19:25;2.90;;;2.70;;
297;SDS011;133;49.626;9.680;2022-08-06T00:21:51;3.03;;;2.83;;
297;SDS011;133;49.626;9.680;2022-08-06T00:24:18;7.27;;;3.10;;
297;SDS011;133;49.626;9.680;2022-08-06T00:26:44;3.27;;;2.60;;
297;SDS011;133;49.626;9.680;2022-08-06T00:29:10;4.90;;;2.87;;
297;SDS011;133;49.626;9.680;2022-08-06T00:31:35;3.00;;;2.83;;
297;SDS011;133;49.626;9.680;2022-08-06T00:34:01;3.60;;;2.60;;
297;SDS011;133;49.626;9.680;2022-08-06T00:36:29;3.50;;;2.97;;
297;SDS011;133;49.626;9.680;2022-08-06T00:38:59;4.83;;;3.03;;
297;SDS011;133;49.626;9.680;2022-08-06T00:41:28;5.70;;;3.87;;
297;SDS011;133;49.626;9.680;2022-08-06T00:43:54;6.17;;;3.07;;
297;SDS011;133;49.626;9.680;2022-08-06T00:46:21;3.10;;;2.70;;
297;SDS011;133;49.626;9.680;2022-08-06T00:48:50;4.43;;;2.90;;
297;SDS011;133;49.626;9.680;2022-08-06T00:51:15;3.07;;;2.90;;
297;SDS011;133;49.626;9.680;2022-08-06T00:53:41;3.10;;;2.80;;
297;SDS011;133;49.626;9.680;2022-08-06T00:56:07;3.27;;;2.97;;
297;SDS011;133;49.626;9.680;2022-08-06T00:58:33;3.00;;;2.80;;
297;SDS011;133;49.626;9.680;2022-08-06T01:00:58;2.83;;;2.63;;
297;SDS011;133;49.626;9.680;2022-08-06T01:03:24;3.70;;;2.80;;
297;SDS011;133;49.626;9.680;2022-08-06T01:05:50;4.30;;;3.40;;
297;SDS011;133;49.626;9.680;2022-08-06T01:08:15;6.93;;;4.30;;
297;SDS011;133;49.626;9.680;2022-08-06T01:10:41;3.90;;;2.80;;
297;SDS011;133;49.626;9.680;2022-08-06T01:13:08;2.80;;;2.60;;
297;SDS011;133;49.626;9.680;2022-08-06T01:15:34;4.00;;;3.13;;
297;SDS011;133;49.626;9.680;2022-08-06T01:18:09;3.13;;;2.93;;
297;SDS011;133;49.626;9.680;2022-08-06T01:23:28;3.30;;;3.10;;
297;SDS011;133;49.626;9.680;2022-08-06T01:26:35;4.90;;;2.80;;
297;SDS011;133;49.626;9.680;2022-08-06T01:29:09;3.53;;;3.33;;
297;SDS011;133;49.626;9.680;2022-08-06T01:31:52;4.13;;;3.33;;
297;SDS011;133;49.626;9.680;2022-08-06T01:34:30;6.30;;;3.10;;
297;SDS011;133;49.626;9.680;2022-08-06T01:39:34;4.20;;;3.20;;
297;SDS011;133;49.626;9.680;2022-08-06T01:42:03;4.13;;;3.50;;
297;SDS011;133;49.626;9.680;2022-08-06T01:44:34;3.40;;;3.17;;
297;SDS011;133;49.626;9.680;2022-08-06T01:47:06;3.40;;;3.20;;
297;SDS011;133;49.626;9.680;2022-08-06T01:49:34;3.60;;;3.30;;
297;SDS011;133;49.626;9.680;2022-08-06T01:52:02;3.00;;;2.83;;
297;SDS011;133;49.626;9.680;2022-08-06T01:54:30;4.03;;;3.40;;
297;SDS011;133;49.626;9.680;2022-08-06T01:57:02;3.57;;;3.37;;
297;SDS011;133;49.626;9.680;2022-08-06T01:59:32;5.77;;;3.10;;
297;SDS011;133;49.626;9.680;2022-08-06T02:02:00;5.73;;;3.17;;
297;SDS011;133;49.626;9.680;2022-08-06T02:04:31;3.20;;;3.00;;
297;SDS011;133;49.626;9.680;2022-08-06T02:07:01;3.67;;;3.33;;
297;SDS011;133;49.626;9.680;2022-08-06T02:09:30;6.23;;;3.20;;
297;SDS011;133;49.626;9.680;2022-08-06T02:12:00;8.70;;;3.57;;
297;SDS011;133;49.626;9.680;2022-08-06T02:14:29;3.60;;;3.40;;
297;SDS011;133;49.626;9.680;2022-08-06T02:16:58;4.97;;;3.50;;
297;SDS011;133;49.626;9.680;2022-08-06T02:19:26;4.70;;;3.80;;
297;SDS011;133;49.626;9.680;2022-08-06T02:21:54;5.53;;;3.43;;
297;SDS011;133;49.626;9.680;2022-08-06T02:24:22;3.47;;;3.27;;
297;SDS011;133;49.626;9.680;2022-08-06T02:26:50;4.47;;;3.67;;
297;SDS011;133;49.626;9.680;2022-08-06T02:29:17;4.17;;;3.70;;
297;SDS011;133;49.626;9.680;2022-08-06T02:31:44;6.93;;;3.80;;
297;SDS011;133;49.626;9.680;2022-08-06T02:34:10;4.43;;;3.43;;
297;SDS011;133;49.626;9.680;2022-08-06T02:36:47;3.80;;;3.67;;
297;SDS011;133;49.626;9.680;2022-08-06T02:39:22;3.97;;;3.77;;
297;SDS011;133;49.626;9.680;2022-08-06T02:47:21;4.03;;;3.70;;
297;SDS011;133;49.626;9.680;2022-08-06T02:49:54;4.73;;;4.20;;
297;SDS011;133;49.626;9.680;2022-08-06T02:52:26;5.97;;;3.90;;
297;SDS011;133;49.626;9.680;2022-08-06T02:55:01;7.50;;;4.73;;
297;SDS011;133;49.626;9.680;2022-08-06T02:57:33;4.17;;;3.77;;
297;SDS011;133;49.626;9.680;2022-08-06T03:00:07;3.80;;;3.60;;
297;SDS011;133;49.626;9.680;2022-08-06T03:02:35;5.73;;;3.83;;
297;SDS011;133;49.626;9.680;2022-08-06T03:05:04;3.30;;;3.10;;
297;SDS011;133;49.626;9.680;2022-08-06T03:07:32;4.40;;;3.90;;
297;SDS011;133;49.626;9.680;2022-08-06T03:10:00;5.10;;;4.07;;
297;SDS011;133;49.626;9.680;2022-08-06T03:12:27;4.10;;;3.90;;
297;SDS011;133;49.626;9.680;2022-08-06T03:14:53;3.80;;;3.60;;
297;SDS011;133;49.626;9.680;2022-08-06T03:17:21;4.23;;;3.97;;
297;SDS011;133;49.626;9.680;2022-08-06T03:19:48;5.00;;;4.37;;
297;SDS011;133;49.626;9.680;2022-08-06T03:22:16;4.30;;;4.00;;
297;SDS011;133;49.626;9.680;2022-08-06T03:24:43;4.30;;;3.80;;
297;SDS011;133;49.626;9.680;2022-08-06T03:27:11;6.50;;;4.00;;
297;SDS011;133;49.626;9.680;2022-08-06T03:29:39;4.13;;;3.87;;
297;SDS011;133;49.626;9.680;2022-08-06T03:32:06;5.30;;;4.33;;
297;SDS011;133;49.626;9.680;2022-08-06T03:34:33;4.50;;;4.20;;
297;SDS011;133;49.626;9.680;2022-08-06T03:37:00;5.20;;;4.50;;
297;SDS011;133;49.626;9.680;2022-08-06T03:39:27;4.73;;;4.53;;
297;SDS011;133;49.626;9.680;2022-08-06T03:41:55;4.47;;;4.20;;
297;SDS011;133;49.626;9.680;2022-08-06T03:44:21;6.77;;;3.97;;
297;SDS011;133;49.626;9.680;2022-08-06T03:46:55;3.97;;;3.80;;
297;SDS011;133;49.626;9.680;2022-08-06T03:50:20;7.13;;;4.80;;
297;SDS011;133;49.626;9.680;2022-08-06T03:52:32;4.33;;;4.03;;
297;SDS011;133;49.626;9.680;2022-08-06T03:55:03;4.60;;;4.30;;
297;SDS011;133;49.626;9.680;2022-08-06T03:57:35;5.27;;;4.70;;
297;SDS011;133;49.626;9.680;2022-08-06T04:00:04;4.30;;;3.80;;
297;SDS011;133;49.626;9.680;2022-08-06T04:02:36;4.77;;;4.00;;
297;SDS011;133;49.626;9.680;2022-08-06T04:05:04;4.90;;;4.03;;
297;SDS011;133;49.626;9.680;2022-08-06T04:07:32;4.27;;;4.00;;
297;SDS011;133;49.626;9.680;2022-08-06T04:09:59;6.50;;;4.30;;
297;SDS011;133;49.626;9.680;2022-08-06T04:12:26;4.97;;;4.30;;
297;SDS011;133;49.626;9.680;2022-08-06T04:14:52;5.50;;;4.00;;
297;SDS011;133;49.626;9.680;2022-08-06T04:17:19;7.10;;;4.80;;
297;SDS011;133;49.626;9.680;2022-08-06T04:19:46;6.00;;;4.63;;
297;SDS011;133;49.626;9.680;2022-08-06T04:22:14;5.73;;;4.10;;
297;SDS011;133;49.626;9.680;2022-08-06T04:24:40;4.70;;;4.40;;
297;SDS011;133;49.626;9.680;2022-08-06T04:27:05;4.60;;;4.30;;
297;SDS011;133;49.626;9.680;2022-08-06T04:29:33;6.40;;;4.50;;
297;SDS011;133;49.626;9.680;2022-08-06T04:32:00;4.57;;;4.27;;
297;SDS011;133;49.626;9.680;2022-08-06T04:34:27;4.40;;;4.10;;
297;SDS011;133;49.626;9.680;2022-08-06T04:36:58;6.00;;;4.23;;
297;SDS011;133;49.626;9.680;2022-08-06T04:39:25;4.37;;;4.10;;
297;SDS011;133;49.626;9.680;2022-08-06T04:41:51;6.00;;;4.00;;
297;SDS011;133;49.626;9.680;2022-08-06T04:44:18;3.90;;;3.70;;
297;SDS011;133;49.626;9.680;2022-08-06T04:46:44;4.30;;;4.03;;
297;SDS011;133;49.626;9.680;2022-08-06T04:49:17;4.90;;;4.60;;
297;SDS011;133;49.626;9.680;2022-08-06T04:51:46;6.37;;;4.20;;
297;SDS011;133;49.626;9.680;2022-08-06T04:54:13;4.60;;;4.30;;
297;SDS011;133;49.626;9.680;2022-08-06T04:56:40;4.83;;;4.23;;
297;SDS011;133;49.626;9.680;2022-08-06T04:59:07;7.43;;;4.83;;
297;SDS011;133;49.626;9.680;2022-08-06T05:01:33;4.17;;;3.93;;
297;SDS011;133;49.626;9.680;2022-08-06T05:03:58;4.70;;;4.07;;
297;SDS011;133;49.626;9.680;2022-08-06T05:09:19;4.30;;;3.93;;
297;SDS011;133;49.626;9.680;2022-08-06T05:11:49;4.70;;;4.40;;
297;SDS011;133;49.626;9.680;2022-08-06T05:14:20;5.10;;;4.80;;
297;SDS011;133;49.626;9.680;2022-08-06T05:16:51;4.63;;;4.33;;
297;SDS011;133;49.626;9.680;2022-08-06T05:19:25;6.23;;;4.07;;
297;SDS011;133;49.626;9.680;2022-08-06T05:21:56;4.40;;;4.10;;
297;SDS011;133;49.626;9.680;2022-08-06T05:24:24;4.37;;;4.07;;
297;SDS011;133;49.626;9.680;2022-08-06T05:26:50;5.23;;;4.20;;
297;SDS011;133;49.626;9.680;2022-08-06T05:29:19;5.93;;;4.10;;
297;SDS011;133;49.626;9.680;2022-08-06T05:31:46;4.63;;;3.70;;
297;SDS011;133;49.626;9.680;2022-08-06T05:34:12;4.93;;;3.97;;
297;SDS011;133;49.626;9.680;2022-08-06T05:36:38;6.27;;;4.00;;
297;SDS011;133;49.626;9.680;2022-08-06T05:39:04;4.10;;;3.80;;
297;SDS011;133;49.626;9.680;2022-08-06T05:41:30;4.27;;;3.80;;
297;SDS011;133;49.626;9.680;2022-08-06T05:43:56;4.20;;;3.40;;
297;SDS011;133;49.626;9.680;2022-08-06T05:46:23;6.63;;;3.30;;
297;SDS011;133;49.626;9.680;2022-08-06T05:48:57;4.53;;;3.90;;
297;SDS011;133;49.626;9.680;2022-08-06T05:51:40;4.40;;;2.77;;
297;SDS011;133;49.626;9.680;2022-08-06T05:54:22;2.90;;;2.70;;
297;SDS011;133;49.626;9.680;2022-08-06T05:57:06;3.00;;;2.80;;
297;SDS011;133;49.626;9.680;2022-08-06T05:59:38;3.53;;;2.80;;
297;SDS011;133;49.626;9.680;2022-08-06T06:02:08;3.77;;;2.33;;
297;SDS011;133;49.626;9.680;2022-08-06T06:04:36;4.43;;;2.80;;
297;SDS011;133;49.626;9.680;2022-08-06T06:07:02;2.70;;;2.50;;
297;SDS011;133;49.626;9.680;2022-08-06T06:09:30;22.03;;;3.10;;
297;SDS011;133;49.626;9.680;2022-08-06T06:11:57;3.43;;;2.80;;
297;SDS011;133;49.626;9.680;2022-08-06T06:17:05;2.57;;;2.37;;
297;SDS011;133;49.626;9.680;2022-08-06T06:25:45;2.57;;;2.40;;
297;SDS011;133;49.626;9.680;2022-08-06T06:36:29;4.77;;;2.90;;
297;SDS011;133;49.626;9.680;2022-08-06T06:39:09;3.53;;;2.60;;
297;SDS011;133;49.626;9.680;2022-08-06T06:41:55;2.50;;;2.30;;
297;SDS011;133;49.626;9.680;2022-08-06T06:44:35;2.33;;;2.20;;
297;SDS011;133;49.626;9.680;2022-08-06T06:47:07;2.37;;;2.17;;
297;SDS011;133;49.626;9.680;2022-08-06T06:49:43;2.53;;;2.33;;
297;SDS011;133;49.626;9.680;2022-08-06T06:52:22;2.30;;;2.20;;
297;SDS011;133;49.626;9.680;2022-08-06T06:54:59;2.37;;;2.00;;
297;SDS011;133;49.626;9.680;2022-08-06T06:57:30;2.50;;;2.30;;
297;SDS011;133;49.626;9.680;2022-08-06T07:00:01;2.20;;;2.00;;
297;SDS011;133;49.626;9.680;2022-08-06T07:02:30;3.70;;;2.00;;
297;SDS011;133;49.626;9.680;2022-08-06T07:04:59;2.20;;;2.00;;
297;SDS011;133;49.626;9.680;2022-08-06T07:07:33;2.80;;;2.23;;
297;SDS011;133;49.626;9.680;2022-08-06T07:10:00;3.47;;;2.10;;
297;SDS011;133;49.626;9.680;2022-08-06T07:12:28;2.40;;;2.10;;
297;SDS011;133;49.626;9.680;2022-08-06T07:14:57;4.13;;;2.00;;
297;SDS011;133;49.626;9.680;2022-08-06T07:17:25;3.40;;;2.33;;
297;SDS011;133;49.626;9.680;2022-08-06T07:19:53;9.70;;;2.43;;
297;SDS011;133;49.626;9.680;2022-08-06T07:22:21;3.90;;;2.20;;
297;SDS011;133;49.626;9.680;2022-08-06T07:24:48;2.30;;;2.03;;
297;SDS011;133;49.626;9.680;2022-08-06T07:27:17;3.50;;;2.00;;
297;SDS011;133;49.626;9.680;2022-08-06T07:29:44;2.30;;;1.90;;
297;SDS011;133;49.626;9.680;2022-08-06T07:32:10;2.67;;;2.27;;
297;SDS011;133;49.626;9.680;2022-08-06T07:34:36;6.07;;;2.53;;
297;SDS011;133;49.626;9.680;2022-08-06T07:37:03;2.60;;;1.97;;
297;SDS011;133;49.626;9.680;2022-08-06T07:39:36;3.03;;;2.00;;
297;SDS011;133;49.626;9.680;2022-08-06T07:42:07;3.10;;;2.20;;
297;SDS011;133;49.626;9.680;2022-08-06T07:44:36;3.57;;;1.97;;
297;SDS011;133;49.626;9.680;2022-08-06T07:47:04;1.87;;;1.83;;
297;SDS011;133;49.626;9.680;2022-08-06T07:49:39;2.40;;;1.90;;
297;SDS011;133;49.626;9.680;2022-08-06T07:52:07;3.23;;;2.10;;
297;SDS011;133;49.626;9.680;2022-08-06T07:54:37;2.47;;;2.20;;
297;SDS011;133;49.626;9.680;2022-08-06T07:57:05;3.13;;;2.03;;
297;SDS011;133;49.626;9.680;2022-08-06T07:59:31;2.63;;;1.93;;
297;SDS011;133;49.626;9.680;2022-08-06T08:01:58;3.03;;;1.90;;
297;SDS011;133;49.626;9.680;2022-08-06T08:04:25;2.00;;;1.90;;
297;SDS011;133;49.626;9.680;2022-08-06T08:07:10;2.60;;;1.93;;
297;SDS011;133;49.626;9.680;2022-08-06T08:09:37;2.53;;;2.33;;
297;SDS011;133;49.626;9.680;2022-08-06T08:12:03;1.93;;;1.90;;
297;SDS011;133;49.626;9.680;2022-08-06T08:14:31;2.23;;;1.90;;
297;SDS011;133;49.626;9.680;2022-08-06T08:16:58;2.93;;;2.10;;
297;SDS011;133;49.626;9.680;2022-08-06T08:19:25;4.13;;;1.90;;
297;SDS011;133;49.626;9.680;2022-08-06T08:21:56;2.43;;;1.70;;
297;SDS011;133;49.626;9.680;2022-08-06T08:24:27;2.00;;;1.90;;
297;SDS011;133;49.626;9.680;2022-08-06T08:26:56;2.10;;;1.77;;
297;SDS011;133;49.626;9.680;2022-08-06T08:29:22;3.10;;;1.97;;
297;SDS011;133;49.626;9.680;2022-08-06T08:31:47;2.33;;;1.70;;
297;SDS011;133;49.626;9.680;2022-08-06T08:34:13;6.00;;;1.80;;
297;SDS011;133;49.626;9.680;2022-08-06T08:36:39;3.37;;;2.13;;
297;SDS011;133;49.626;9.680;2022-08-06T08:39:05;4.40;;;1.90;;
297;SDS011;133;49.626;9.680;2022-08-06T08:41:33;4.60;;;2.33;;
297;SDS011;133;49.626;9.680;2022-08-06T08:44:05;2.50;;;1.90;;
297;SDS011;133;49.626;9.680;2022-08-06T08:46:32;3.83;;;1.90;;
297;SDS011;133;49.626;9.680;2022-08-06T08:49:07;2.87;;;1.90;;
297;SDS011;133;49.626;9.680;2022-08-06T08:51:41;5.83;;;2.10;;
297;SDS011;133;49.626;9.680;2022-08-06T08:54:11;3.27;;;2.00;;
297;SDS011;133;49.626;9.680;2022-08-06T08:56:40;6.97;;;2.17;;
297;SDS011;133;49.626;9.680;2022-08-06T08:59:06;3.43;;;1.90;;
297;SDS011;133;49.626;9.680;2022-08-06T09:01:32;2.37;;;2.00;;
297;SDS011;133;49.626;9.680;2022-08-06T09:04:01;1.93;;;1.87;;
297;SDS011;133;49.626;9.680;2022-08-06T09:06:27;3.63;;;2.17;;
297;SDS011;133;49.626;9.680;2022-08-06T09:08:53;1.90;;;1.80;;
297;SDS011;133;49.626;9.680;2022-08-06T09:11:20;2.53;;;1.90;;
297;SDS011;133;49.626;9.680;2022-08-06T09:13:47;2.00;;;1.90;;
297;SDS011;133;49.626;9.680;2022-08-06T09:16:13;4.03;;;1.80;;
297;SDS011;133;49.626;9.680;2022-08-06T09:18:38;2.60;;;1.80;;
297;SDS011;133;49.626;9.680;2022-08-06T09:21:04;1.93;;;1.80;;
297;SDS011;133;49.626;9.680;2022-08-06T09:23:30;1.90;;;1.80;;
297;SDS011;133;49.626;9.680;2022-08-06T09:25:55;2.80;;;2.00;;
297;SDS011;133;49.626;9.680;2022-08-06T09:31:05;2.43;;;1.60;;
297;SDS011;133;49.626;9.680;2022-08-06T09:33:33;3.60;;;1.70;;
297;SDS011;133;49.626;9.680;2022-08-06T09:36:05;1.80;;;1.73;;
297;SDS011;133;49.626;9.680;2022-08-06T09:38:44;4.63;;;2.00;;
297;SDS011;133;49.626;9.680;2022-08-06T09:41:12;1.73;;;1.63;;
297;SDS011;133;49.626;9.680;2022-08-06T09:43:39;1.63;;;1.50;;
297;SDS011;133;49.626;9.680;2022-08-06T09:46:06;3.00;;;1.80;;
297;SDS011;133;49.626;9.680;2022-08-06T09:48:32;2.10;;;1.63;;
297;SDS011;133;49.626;9.680;2022-08-06T09:50:59;1.63;;;1.53;;
297;SDS011;133;49.626;9.680;2022-08-06T09:53:25;5.00;;;1.80;;
297;SDS011;133;49.626;9.680;2022-08-06T09:55:52;1.40;;;1.30;;
297;SDS011;133;49.626;9.680;2022-08-06T09:58:32;2.13;;;1.67;;
297;SDS011;133;49.626;9.680;2022-08-06T10:03:46;1.30;;;1.20;;
297;SDS011;133;49.626;9.680;2022-08-06T10:06:16;1.65;;;1.50;;
297;SDS011;133;49.626;9.680;2022-08-06T10:08:46;2.25;;;1.45;;
297;SDS011;133;49.626;9.680;2022-08-06T10:11:49;2.13;;;1.30;;
297;SDS011;133;49.626;9.680;2022-08-06T10:17:12;1.52;;;1.42;;
297;SDS011;133;49.626;9.680;2022-08-06T10:19:42;1.60;;;1.45;;
297;SDS011;133;49.626;9.680;2022-08-06T10:22:13;4.13;;;1.50;;
297;SDS011;133;49.626;9.680;2022-08-06T10:24:41;3.10;;;1.60;;
297;SDS011;133;49.626;9.680;2022-08-06T10:27:07;1.63;;;1.53;;
297;SDS011;133;49.626;9.680;2022-08-06T10:29:37;1.90;;;1.80;;
297;SDS011;133;49.626;9.680;2022-08-06T10:32:07;1.70;;;1.40;;
297;SDS011;133;49.626;9.680;2022-08-06T10:34:34;1.67;;;1.60;;
297;SDS011;133;49.626;9.680;2022-08-06T10:37:01;1.77;;;1.67;;
297;SDS011;133;49.626;9.680;2022-08-06T10:39:31;1.43;;;1.33;;
297;SDS011;133;49.626;9.680;2022-08-06T10:41:59;1.77;;;1.63;;
297;SDS011;133;49.626;9.680;2022-08-06T10:44:26;1.57;;;1.50;;
297;SDS011;133;49.626;9.680;2022-08-06T10:46:52;1.80;;;1.70;;
297;SDS011;133;49.626;9.680;2022-08-06T10:49:19;2.10;;;1.57;;
297;SDS011;133;49.626;9.680;2022-08-06T10:51:47;1.57;;;1.40;;
297;SDS011;133;49.626;9.680;2022-08-06T10:54:14;1.53;;;1.50;;
297;SDS011;133;49.626;9.680;2022-08-06T10:56:41;2.03;;;1.50;;
297;SDS011;133;49.626;9.680;2022-08-06T10:59:07;2.63;;;1.53;;
297;SDS011;133;49.626;9.680;2022-08-06T11:04:02;3.73;;;1.70;;
297;SDS011;133;49.626;9.680;2022-08-06T11:14:59;1.40;;;1.30;;
297;SDS011;133;49.626;9.680;2022-08-06T11:17:25;2.60;;;1.60;;
297;SDS011;133;49.626;9.680;2022-08-06T11:20:05;1.73;;;1.50;;
297;SDS011;133;49.626;9.680;2022-08-06T11:22:36;1.50;;;1.50;;
297;SDS011;133;49.626;9.680;2022-08-06T11:25:07;1.70;;;1.60;;
297;SDS011;133;49.626;9.680;2022-08-06T11:27:50;2.20;;;1.60;;
297;SDS011;133;49.626;9.680;2022-08-06T11:30:35;1.93;;;1.60;;
297;SDS011;133;49.626;9.680;2022-08-06T11:33:03;1.70;;;1.60;;
297;SDS011;133;49.626;9.680;2022-08-06T11:38:02;1.77;;;1.50;;
297;SDS011;133;49.626;9.680;2022-08-06T11:46:35;1.70;;;1.60;;
297;SDS011;133;49.626;9.680;2022-08-06T11:51:36;1.53;;;1.30;;
297;SDS011;133;49.626;9.680;2022-08-06T11:54:10;1.53;;;1.43;;
297;SDS011;133;49.626;9.680;2022-08-06T11:59:26;3.50;;;1.50;;
297;SDS011;133;49.626;9.680;2022-08-06T12:01:55;1.40;;;1.30;;
297;SDS011;133;49.626;9.680;2022-08-06T12:17:37;1.77;;;1.67;;
297;SDS011;133;49.626;9.680;2022-08-06T12:20:33;1.73;;;1.50;;
297;SDS011;133;49.626;9.680;2022-08-06T12:23:10;2.10;;;1.60;;
297;SDS011;133;49.626;9.680;2022-08-06T12:25:41;3.20;;;1.40;;
297;SDS011;133;49.626;9.680;2022-08-06T12:28:08;1.60;;;1.50;;
297;SDS011;133;49.626;9.680;2022-08-06T12:33:18;1.83;;;1.40;;
297;SDS011;133;49.626;9.680;2022-08-06T12:35:52;1.50;;;1.40;;
297;SDS011;133;49.626;9.680;2022-08-06T12:38:21;1.63;;;1.50;;
297;SDS011;133;49.626;9.680;2022-08-06T12:41:06;1.97;;;1.50;;
297;SDS011;133;49.626;9.680;2022-08-06T12:43:34;1.60;;;1.60;;
297;SDS011;133;49.626;9.680;2022-08-06T12:46:02;1.40;;;1.30;;
297;SDS011;133;49.626;9.680;2022-08-06T12:48:29;1.50;;;1.40;;
297;SDS011;133;49.626;9.680;2022-08-06T12:51:09;1.50;;;1.40;;
297;SDS011;133;49.626;9.680;2022-08-06T12:56:06;1.83;;;1.30;;
297;SDS011;133;49.626;9.680;2022-08-06T12:58:35;2.40;;;1.60;;
297;SDS011;133;49.626;9.680;2022-08-06T13:01:04;1.40;;;1.30;;
297;SDS011;133;49.626;9.680;2022-08-06T13:03:32;2.40;;;1.50;;
297;SDS011;133;49.626;9.680;2022-08-06T13:06:01;1.67;;;1.50;;
297;SDS011;133;49.626;9.680;2022-08-06T13:08:28;6.33;;;1.90;;
297;SDS011;133;49.626;9.680;2022-08-06T13:10:55;2.07;;;1.50;;
297;SDS011;133;49.626;9.680;2022-08-06T13:13:33;3.43;;;1.30;;
297;SDS011;133;49.626;9.680;2022-08-06T13:16:03;1.50;;;1.40;;
297;SDS011;133;49.626;9.680;2022-08-06T13:18:30;2.50;;;1.60;;
297;SDS011;133;49.626;9.680;2022-08-06T13:20:56;1.60;;;1.50;;
297;SDS011;133;49.626;9.680;2022-08-06T13:23:30;1.63;;;1.40;;
297;SDS011;133;49.626;9.680;2022-08-06T13:25:55;2.40;;;1.40;;
297;SDS011;133;49.626;9.680;2022-08-06T13:28:21;2.07;;;1.60;;
297;SDS011;133;49.626;9.680;2022-08-06T13:30:48;1.60;;;1.50;;
297;SDS011;133;49.626;9.680;2022-08-06T13:35:45;1.63;;;1.30;;
297;SDS011;133;49.626;9.680;2022-08-06T13:38:29;2.03;;;1.50;;
297;SDS011;133;49.626;9.680;2022-08-06T13:40:57;1.60;;;1.50;;
297;SDS011;133;49.626;9.680;2022-08-06T13:43:33;2.20;;;1.67;;
297;SDS011;133;49.626;9.680;2022-08-06T13:46:05;2.00;;;1.47;;
297;SDS011;133;49.626;9.680;2022-08-06T13:48:31;1.40;;;1.40;;
297;SDS011;133;49.626;9.680;2022-08-06T13:50:57;1.40;;;1.30;;
297;SDS011;133;49.626;9.680;2022-08-06T13:53:22;1.47;;;1.37;;
297;SDS011;133;49.626;9.680;2022-08-06T13:55:48;1.50;;;1.50;;
297;SDS011;133;49.626;9.680;2022-08-06T13:58:14;1.60;;;1.50;;
297;SDS011;133;49.626;9.680;2022-08-06T14:00:39;1.57;;;1.50;;
297;SDS011;133;49.626;9.680;2022-08-06T14:03:07;2.07;;;1.50;;
297;SDS011;133;49.626;9.680;2022-08-06T14:05:32;2.07;;;1.70;;
297;SDS011;133;49.626;9.680;2022-08-06T14:07:58;2.33;;;1.60;;
297;SDS011;133;49.626;9.680;2022-08-06T14:10:23;1.53;;;1.43;;
297;SDS011;133;49.626;9.680;2022-08-06T14:12:49;5.20;;;1.60;;
297;SDS011;133;49.626;9.680;2022-08-06T14:15:34;1.80;;;1.70;;
297;SDS011;133;49.626;9.680;2022-08-06T14:18:00;1.50;;;1.40;;
297;SDS011;133;49.626;9.680;2022-08-06T14:20:26;1.30;;;1.30;;
297;SDS011;133;49.626;9.680;2022-08-06T14:22:52;2.20;;;2.00;;
297;SDS011;133;49.626;9.680;2022-08-06T14:25:18;2.43;;;2.23;;
297;SDS011;133;49.626;9.680;2022-08-06T14:27:44;2.33;;;1.80;;
297;SDS011;133;49.626;9.680;2022-08-06T14:30:11;1.60;;;1.50;;
297;SDS011;133;49.626;9.680;2022-08-06T14:32:37;2.90;;;1.60;;
297;SDS011;133;49.626;9.680;2022-08-06T14:35:03;1.70;;;1.60;;
297;SDS011;133;49.626;9.680;2022-08-06T14:37:29;1.50;;;1.40;;
297;SDS011;133;49.626;9.680;2022-08-06T14:39:55;2.37;;;1.60;;
297;SDS011;133;49.626;9.680;2022-08-06T14:42:20;1.97;;;1.70;;
297;SDS011;133;49.626;9.680;2022-08-06T14:45:04;1.50;;;1.40;;
297;SDS011;133;49.626;9.680;2022-08-06T14:47:33;2.37;;;1.87;;
297;SDS011;133;49.626;9.680;2022-08-06T14:49:58;3.07;;;2.23;;
297;SDS011;133;49.626;9.680;2022-08-06T14:52:24;2.30;;;2.10;;
297;SDS011;133;49.626;9.680;2022-08-06T14:54:51;2.23;;;1.50;;
297;SDS011;133;49.626;9.680;2022-08-06T14:57:17;2.33;;;1.60;;
297;SDS011;133;49.626;9.680;2022-08-06T14:59:43;1.60;;;1.50;;
297;SDS011;133;49.626;9.680;2022-08-06T15:02:10;2.30;;;1.63;;
297;SDS011;133;49.626;9.680;2022-08-06T15:04:36;1.63;;;1.53;;
297;SDS011;133;49.626;9.680;2022-08-06T15:07:02;2.00;;;1.90;;
297;SDS011;133;49.626;9.680;2022-08-06T15:09:28;1.63;;;1.53;;
297;SDS011;133;49.626;9.680;2022-08-06T15:11:54;1.70;;;1.60;;
297;SDS011;133;49.626;9.680;2022-08-06T15:14:20;2.20;;;1.50;;
297;SDS011;133;49.626;9.680;2022-08-06T15:16:45;2.97;;;1.63;;
297;SDS011;133;49.626;9.680;2022-08-06T15:19:11;4.70;;;2.23;;
297;SDS011;133;49.626;9.680;2022-08-06T15:21:37;2.70;;;1.40;;
297;SDS011;133;49.626;9.680;2022-08-06T15:24:03;1.50;;;1.40;;
297;SDS011;133;49.626;9.680;2022-08-06T15:26:28;1.83;;;1.60;;
297;SDS011;133;49.626;9.680;2022-08-06T15:28:54;2.70;;;1.63;;
297;SDS011;133;49.626;9.680;2022-08-06T15:31:20;1.70;;;1.60;;
297;SDS011;133;49.626;9.680;2022-08-06T15:33:46;4.30;;;1.70;;
297;SDS011;133;49.626;9.680;2022-08-06T15:36:12;1.60;;;1.60;;
297;SDS011;133;49.626;9.680;2022-08-06T15:38:38;1.63;;;1.60;;
297;SDS011;133;49.626;9.680;2022-08-06T15:41:04;2.70;;;1.60;;
297;SDS011;133;49.626;9.680;2022-08-06T15:43:30;1.80;;;1.60;;
297;SDS011;133;49.626;9.680;2022-08-06T15:45:56;2.43;;;1.63;;
297;SDS011;133;49.626;9.680;2022-08-06T15:48:24;8.93;;;2.17;;
297;SDS011;133;49.626;9.680;2022-08-06T15:50:50;1.97;;;1.50;;
297;SDS011;133;49.626;9.680;2022-08-06T15:53:16;2.60;;;1.70;;
297;SDS011;133;49.626;9.680;2022-08-06T15:55:42;1.77;;;1.70;;
297;SDS011;133;49.626;9.680;2022-08-06T15:58:08;1.60;;;1.50;;
297;SDS011;133;49.626;9.680;2022-08-06T16:00:35;1.53;;;1.43;;
297;SDS011;133;49.626;9.680;2022-08-06T16:03:06;1.77;;;1.50;;
297;SDS011;133;49.626;9.680;2022-08-06T16:05:33;2.27;;;1.70;;
297;SDS011;133;49.626;9.680;2022-08-06T16:07:58;1.80;;;1.40;;
297;SDS011;133;49.626;9.680;2022-08-06T16:10:24;3.40;;;1.70;;
297;SDS011;133;49.626;9.680;2022-08-06T16:12:50;1.60;;;1.50;;
297;SDS011;133;49.626;9.680;2022-08-06T16:15:17;2.60;;;1.60;;
297;SDS011;133;49.626;9.680;2022-08-06T16:17:43;2.03;;;1.50;;
297;SDS011;133;49.626;9.680;2022-08-06T16:20:09;1.67;;;1.50;;
297;SDS011;133;49.626;9.680;2022-08-06T16:22:35;1.47;;;1.37;;
297;SDS011;133;49.626;9.680;2022-08-06T16:25:01;2.03;;;1.47;;
297;SDS011;133;49.626;9.680;2022-08-06T16:27:27;1.70;;;1.60;;
297;SDS011;133;49.626;9.680;2022-08-06T16:29:52;5.93;;;2.17;;
297;SDS011;133;49.626;9.680;2022-08-06T16:32:18;2.37;;;1.70;;
297;SDS011;133;49.626;9.680;2022-08-06T16:34:43;1.93;;;1.60;;
297;SDS011;133;49.626;9.680;2022-08-06T16:37:09;2.97;;;1.60;;
297;SDS011;133;49.626;9.680;2022-08-06T16:39:35;1.70;;;1.60;;
297;SDS011;133;49.626;9.680;2022-08-06T16:42:01;1.53;;;1.50;;
297;SDS011;133;49.626;9.680;2022-08-06T16:44:27;1.77;;;1.67;;
297;SDS011;133;49.626;9.680;2022-08-06T16:46:53;2.20;;;1.70;;
297;SDS011;133;49.626;9.680;2022-08-06T16:49:19;1.77;;;1.70;;
297;SDS011;133;49.626;9.680;2022-08-06T16:51:45;1.83;;;1.50;;
297;SDS011;133;49.626;9.680;2022-08-06T16:54:12;1.77;;;1.70;;
297;SDS011;133;49.626;9.680;2022-08-06T16:56:41;1.83;;;1.73;;
297;SDS011;133;49.626;9.680;2022-08-06T16:59:07;3.47;;;1.63;;
297;SDS011;133;49.626;9.680;2022-08-06T17:01:37;3.90;;;1.70;;
297;SDS011;133;49.626;9.680;2022-08-06T17:04:04;1.50;;;1.40;;
297;SDS011;133;49.626;9.680;2022-08-06T17:06:31;1.70;;;1.60;;
297;SDS011;133;49.626;9.680;2022-08-06T17:08:57;3.00;;;1.50;;
297;SDS011;133;49.626;9.680;2022-08-06T17:11:24;1.60;;;1.50;;
297;SDS011;133;49.626;9.680;2022-08-06T17:13:50;2.80;;;1.60;;
297;SDS011;133;49.626;9.680;2022-08-06T17:16:16;4.50;;;1.70;;
297;SDS011;133;49.626;9.680;2022-08-06T17:18:41;1.43;;;1.33;;
297;SDS011;133;49.626;9.680;2022-08-06T17:21:07;1.80;;;1.70;;